createdAt,value
2023-09-23T00:00:51.796Z,8.80
2023-09-23T00:03:38.090Z,6.38
2023-09-23T00:06:05.516Z,5.40
2023-09-23T00:08:32.776Z,5.68
2023-09-23T00:10:59.938Z,7.68
2023-09-23T00:13:29.213Z,7.53
2023-09-23T00:15:57.341Z,9.30
2023-09-23T00:18:24.502Z,9.70
2023-09-23T00:20:51.577Z,6.97
2023-09-23T00:23:19.141Z,7.43
2023-09-23T00:25:48.023Z,8.90
2023-09-23T00:28:15.989Z,7.70
2023-09-23T00:30:44.489Z,10.90
2023-09-23T00:33:15.646Z,9.57
2023-09-23T00:35:42.604Z,10.57
2023-09-23T00:38:09.623Z,10.38
2023-09-23T00:40:39.557Z,10.00
2023-09-23T00:43:08.232Z,10.68
2023-09-23T00:45:35.828Z,11.10
2023-09-23T00:48:03.106Z,11.95
2023-09-23T00:50:31.134Z,11.88
2023-09-23T00:52:59.840Z,15.10
2023-09-23T00:55:29.813Z,13.63
2023-09-23T00:58:01.217Z,12.60
2023-09-23T01:00:31.864Z,12.35
2023-09-23T01:03:00.540Z,10.45
2023-09-23T01:05:30.023Z,10.77
2023-09-23T01:08:01.862Z,13.05
2023-09-23T01:10:29.711Z,12.68
2023-09-23T01:12:57.676Z,12.18
2023-09-23T01:15:27.182Z,12.48
2023-09-23T01:17:55.436Z,12.85
2023-09-23T01:20:22.912Z,12.02
2023-09-23T01:22:50.328Z,13.27
2023-09-23T01:25:20.389Z,12.02
2023-09-23T01:27:47.346Z,12.38
2023-09-23T01:30:14.582Z,14.27
2023-09-23T01:32:52.980Z,13.18
2023-09-23T01:35:21.794Z,14.13
2023-09-23T01:37:50.112Z,15.50
2023-09-23T01:40:19.273Z,15.43
2023-09-23T01:42:50.164Z,26.83
2023-09-23T01:45:20.257Z,25.50
2023-09-23T01:47:47.432Z,24.02
2023-09-23T01:50:15.053Z,23.58
2023-09-23T01:52:42.115Z,19.00
2023-09-23T01:55:13.657Z,17.50
2023-09-23T01:57:40.785Z,18.55
2023-09-23T02:00:11.406Z,24.25
2023-09-23T02:02:41.427Z,23.75
2023-09-23T02:05:09.642Z,25.08
2023-09-23T02:07:36.462Z,23.77
2023-09-23T02:10:03.684Z,24.75
2023-09-23T02:12:30.441Z,23.33
2023-09-23T02:14:57.483Z,23.92
2023-09-23T02:17:24.266Z,25.83
2023-09-23T02:19:55.033Z,21.75
2023-09-23T02:22:21.938Z,24.65
2023-09-23T02:24:49.571Z,22.20
2023-09-23T02:27:17.391Z,20.30
2023-09-23T02:29:44.602Z,25.17
2023-09-23T02:32:12.292Z,22.83
2023-09-23T02:34:39.644Z,24.33
2023-09-23T02:37:06.960Z,21.67
2023-09-23T02:39:34.014Z,25.92
2023-09-23T02:42:01.159Z,23.92
2023-09-23T02:44:31.220Z,23.20
2023-09-23T02:46:58.371Z,21.15
2023-09-23T02:49:25.559Z,27.13
2023-09-23T02:51:52.359Z,40.97
2023-09-23T02:54:19.887Z,39.78
2023-09-23T02:56:48.200Z,34.10
2023-09-23T02:59:17.149Z,38.25
2023-09-23T03:01:52.790Z,43.15
2023-09-23T03:04:24.568Z,44.90
2023-09-23T03:07:02.127Z,40.05
2023-09-23T03:09:33.764Z,42.85
2023-09-23T03:12:02.073Z,46.80
2023-09-23T03:14:44.195Z,46.92
2023-09-23T03:17:13.958Z,47.78
2023-09-23T03:19:41.176Z,45.15
2023-09-23T03:22:08.997Z,42.35
2023-09-23T03:24:36.314Z,42.42
2023-09-23T03:27:03.446Z,43.22
2023-09-23T03:29:32.148Z,44.55
2023-09-23T03:32:00.654Z,44.55
2023-09-23T03:34:28.124Z,39.95
2023-09-23T03:36:56.012Z,43.30
2023-09-23T03:39:30.036Z,38.53
2023-09-23T03:42:04.605Z,38.95
2023-09-23T03:44:37.013Z,39.42
2023-09-23T03:47:09.380Z,38.78
2023-09-23T03:49:37.806Z,40.63
2023-09-23T03:52:07.102Z,49.28
2023-09-23T03:54:34.500Z,49.15
2023-09-23T03:57:01.226Z,62.13
2023-09-23T03:59:29.527Z,55.67
2023-09-23T04:01:56.788Z,49.53
2023-09-23T04:04:24.619Z,39.63
2023-09-23T04:06:51.448Z,46.75
2023-09-23T04:09:18.523Z,48.20
2023-09-23T04:11:47.081Z,45.15
2023-09-23T04:14:14.159Z,41.03
2023-09-23T04:16:40.941Z,34.20
2023-09-23T04:19:08.525Z,24.40
2023-09-23T04:21:35.420Z,23.23
2023-09-23T04:24:02.732Z,21.83
2023-09-23T04:26:29.630Z,26.20
2023-09-23T04:28:57.158Z,21.50
2023-09-23T04:31:26.023Z,18.13
2023-09-23T04:33:53.165Z,16.88
2023-09-23T04:36:22.369Z,14.82
2023-09-23T04:38:49.715Z,15.20
2023-09-23T04:41:16.740Z,15.15
2023-09-23T04:43:43.833Z,15.57
2023-09-23T04:46:15.738Z,12.82
2023-09-23T04:48:43.884Z,14.18
2023-09-23T04:51:11.273Z,14.73
2023-09-23T04:53:38.451Z,11.00
2023-09-23T04:56:11.412Z,12.18
2023-09-23T04:58:38.434Z,13.27
2023-09-23T05:01:06.984Z,9.80
2023-09-23T05:03:34.393Z,13.52
2023-09-23T05:06:02.083Z,15.40
2023-09-23T05:08:29.256Z,13.07
2023-09-23T05:10:57.753Z,14.80
2023-09-23T05:13:25.564Z,13.15
2023-09-23T05:15:52.580Z,14.60
2023-09-23T05:18:19.657Z,15.85
2023-09-23T05:20:49.090Z,15.13
2023-09-23T05:23:16.363Z,15.40
2023-09-23T05:25:43.264Z,19.35
2023-09-23T05:28:11.333Z,16.10
2023-09-23T05:30:38.518Z,17.40
2023-09-23T05:33:05.646Z,15.43
2023-09-23T05:35:32.509Z,17.05
2023-09-23T05:38:00.915Z,16.50
2023-09-23T05:40:28.006Z,18.83
2023-09-23T05:42:55.342Z,13.18
2023-09-23T05:45:26.758Z,14.80
2023-09-23T05:47:54.933Z,14.10
2023-09-23T05:50:22.560Z,12.68
2023-09-23T05:52:50.510Z,12.10
2023-09-23T05:55:17.724Z,13.27
2023-09-23T05:57:45.138Z,12.35
2023-09-23T06:00:13.435Z,17.48
2023-09-23T06:02:40.804Z,13.30
2023-09-23T06:05:08.287Z,13.38
2023-09-23T06:07:35.332Z,13.88
2023-09-23T06:10:02.190Z,14.52
2023-09-23T06:12:33.322Z,12.75
2023-09-23T06:15:01.535Z,14.05
2023-09-23T06:17:29.738Z,13.48
2023-09-23T06:19:57.304Z,14.13
2023-09-23T06:22:24.705Z,15.38
2023-09-23T06:24:51.771Z,11.73
2023-09-23T06:27:19.682Z,14.40
2023-09-23T06:29:47.361Z,11.27
2023-09-23T06:32:14.726Z,12.77
2023-09-23T06:34:41.621Z,10.70
2023-09-23T06:37:08.657Z,11.23
2023-09-23T06:39:35.807Z,9.73
2023-09-23T06:42:02.897Z,10.07
2023-09-23T06:44:29.841Z,10.15
2023-09-23T06:46:57.050Z,11.20
2023-09-23T06:49:23.969Z,12.23
2023-09-23T06:51:51.275Z,9.93
2023-09-23T06:54:18.113Z,12.38
2023-09-23T06:56:46.190Z,10.27
2023-09-23T06:59:13.014Z,10.63
2023-09-23T07:01:40.132Z,11.10
2023-09-23T07:04:07.423Z,11.30
2023-09-23T07:06:34.581Z,9.35
2023-09-23T07:09:01.357Z,6.70
2023-09-23T07:11:28.694Z,10.52
2023-09-23T07:13:57.039Z,7.45
2023-09-23T07:16:24.112Z,8.65
2023-09-23T07:18:51.460Z,8.82
2023-09-23T07:21:18.633Z,10.07
2023-09-23T07:23:45.768Z,8.50
2023-09-23T07:26:21.596Z,8.18
2023-09-23T07:28:51.381Z,6.63
2023-09-23T07:31:18.997Z,6.78
2023-09-23T07:33:46.744Z,5.85
2023-09-23T07:36:14.486Z,6.35
2023-09-23T07:38:41.726Z,8.50
2023-09-23T07:41:09.170Z,4.85
2023-09-23T07:43:36.434Z,7.07
2023-09-23T07:46:03.599Z,5.13
2023-09-23T07:48:30.354Z,6.68
2023-09-23T07:50:57.350Z,7.65
2023-09-23T07:53:24.186Z,5.82
2023-09-23T07:55:51.372Z,6.25
2023-09-23T07:58:18.179Z,5.20
2023-09-23T08:00:45.287Z,3.55
2023-09-23T08:03:12.155Z,4.07
2023-09-23T08:05:40.459Z,6.30
2023-09-23T08:08:07.436Z,4.32
2023-09-23T08:10:34.552Z,7.00
2023-09-23T08:13:01.420Z,7.88
2023-09-23T08:15:28.444Z,5.93
2023-09-23T08:17:55.318Z,4.75
2023-09-23T08:20:24.963Z,7.47
2023-09-23T08:22:52.109Z,7.82
2023-09-23T08:25:19.254Z,7.10
2023-09-23T08:27:47.010Z,8.85
2023-09-23T08:30:17.440Z,7.40
2023-09-23T08:32:45.542Z,8.13
2023-09-23T08:35:12.845Z,5.28
2023-09-23T08:37:39.826Z,7.32
2023-09-23T08:40:12.252Z,7.95
2023-09-23T08:42:40.205Z,5.18
2023-09-23T08:45:09.686Z,7.75
2023-09-23T08:47:38.510Z,7.30
2023-09-23T08:50:12.645Z,7.10
2023-09-23T08:52:39.778Z,7.18
2023-09-23T08:55:08.660Z,6.93
2023-09-23T08:57:35.681Z,6.18
2023-09-23T09:00:08.477Z,6.25
2023-09-23T09:02:35.590Z,6.68
2023-09-23T09:05:03.103Z,8.15
2023-09-23T09:07:37.292Z,5.20
2023-09-23T09:10:06.307Z,5.00
2023-09-23T09:12:33.644Z,5.53
2023-09-23T09:15:01.257Z,7.57
2023-09-23T09:17:28.211Z,5.20
2023-09-23T09:19:55.376Z,6.32
2023-09-23T09:22:22.284Z,5.63
2023-09-23T09:24:49.345Z,5.60
2023-09-23T09:27:17.021Z,5.57
2023-09-23T09:29:45.091Z,9.13
2023-09-23T09:32:12.556Z,8.07
2023-09-23T09:34:47.567Z,5.47
2023-09-23T09:37:16.107Z,8.88
2023-09-23T09:39:52.539Z,4.10
2023-09-23T09:42:28.365Z,5.05
2023-09-23T09:44:56.485Z,5.03
2023-09-23T09:47:23.948Z,4.65
2023-09-23T09:49:53.347Z,4.47
2023-09-23T09:52:24.658Z,5.22
2023-09-23T09:54:54.131Z,5.13
2023-09-23T09:57:23.445Z,4.30
2023-09-23T09:59:54.111Z,5.75
2023-09-23T10:02:25.117Z,4.53
2023-09-23T10:04:54.874Z,6.65
2023-09-23T10:07:24.857Z,10.68
2023-09-23T10:09:56.311Z,5.07
2023-09-23T10:12:26.733Z,7.90
2023-09-23T10:14:57.724Z,6.50
2023-09-23T10:17:32.790Z,5.88
2023-09-23T10:20:02.144Z,6.93
2023-09-23T10:22:29.602Z,3.67
2023-09-23T10:25:05.696Z,5.68
2023-09-23T10:27:33.585Z,7.45
2023-09-23T10:30:01.886Z,4.43
2023-09-23T10:32:29.551Z,3.88
2023-09-23T10:34:57.239Z,7.13
2023-09-23T10:37:31.869Z,4.88
2023-09-23T10:40:15.039Z,6.47
2023-09-23T10:42:42.980Z,13.48
2023-09-23T10:45:12.143Z,5.70
2023-09-23T10:47:39.395Z,10.48
2023-09-23T10:50:09.668Z,5.82
2023-09-23T10:52:37.433Z,9.82
2023-09-23T10:55:05.726Z,5.00
2023-09-23T10:57:32.531Z,4.20
2023-09-23T10:59:59.806Z,6.57
2023-09-23T11:02:26.860Z,6.80
2023-09-23T11:04:55.867Z,3.38
2023-09-23T11:07:25.219Z,4.15
2023-09-23T11:09:54.807Z,3.88
2023-09-23T11:12:21.619Z,4.47
2023-09-23T11:14:49.965Z,8.40
2023-09-23T11:17:32.475Z,5.85
2023-09-23T11:20:01.052Z,5.38
2023-09-23T11:22:29.642Z,5.35
2023-09-23T11:24:58.404Z,3.70
2023-09-23T11:27:26.427Z,5.20
2023-09-23T11:29:54.429Z,4.68
2023-09-23T11:32:25.718Z,5.15
2023-09-23T11:34:53.877Z,4.45
2023-09-23T11:37:24.661Z,4.38
2023-09-23T11:39:52.038Z,3.92
2023-09-23T11:42:18.975Z,3.42
2023-09-23T11:44:46.127Z,4.20
2023-09-23T11:47:12.930Z,3.58
2023-09-23T11:49:40.062Z,5.00
2023-09-23T11:52:13.546Z,11.23
2023-09-23T11:54:41.843Z,2.33
2023-09-23T11:57:09.719Z,3.85
2023-09-23T11:59:37.933Z,3.30
2023-09-23T12:02:05.494Z,3.55
2023-09-23T12:04:33.063Z,3.10
2023-09-23T12:07:00.173Z,3.85
2023-09-23T12:09:29.130Z,5.75
2023-09-23T12:11:56.112Z,6.00
2023-09-23T12:14:23.174Z,6.97
2023-09-23T12:16:49.972Z,3.35
2023-09-23T12:19:17.013Z,3.75
2023-09-23T12:21:43.830Z,5.63
2023-09-23T12:24:11.010Z,2.83
2023-09-23T12:26:37.863Z,5.47
2023-09-23T12:29:05.050Z,4.93
2023-09-23T12:31:31.929Z,3.67
2023-09-23T12:33:58.996Z,1.80
2023-09-23T12:36:26.145Z,3.42
2023-09-23T12:38:55.800Z,2.13
2023-09-23T12:41:22.876Z,3.33
2023-09-23T12:43:49.949Z,3.10
2023-09-23T12:46:16.736Z,4.25
2023-09-23T12:48:45.934Z,3.22
2023-09-23T12:51:14.000Z,2.92
2023-09-23T12:53:41.380Z,5.00
2023-09-23T12:56:10.458Z,4.22
2023-09-23T12:58:38.195Z,3.28
2023-09-23T13:01:05.453Z,4.88
2023-09-23T13:03:33.454Z,5.72
2023-09-23T13:06:01.016Z,2.78
2023-09-23T13:08:28.418Z,9.23
2023-09-23T13:10:55.275Z,2.15
2023-09-23T13:13:22.340Z,3.17
2023-09-23T13:15:49.156Z,4.70
2023-09-23T13:18:17.818Z,7.47
2023-09-23T13:20:45.321Z,3.53
2023-09-23T13:23:13.062Z,5.00
2023-09-23T13:25:41.289Z,4.13
2023-09-23T13:28:08.617Z,6.95
2023-09-23T13:30:35.690Z,3.67
2023-09-23T13:33:03.119Z,4.32
2023-09-23T13:35:30.440Z,3.90
2023-09-23T13:37:57.684Z,7.10
2023-09-23T13:40:24.590Z,5.15
2023-09-23T13:42:52.751Z,3.90
2023-09-23T13:45:19.735Z,7.47
2023-09-23T13:47:47.653Z,4.53
2023-09-23T13:50:14.629Z,4.00
2023-09-23T13:52:41.757Z,3.88
2023-09-23T13:55:09.286Z,6.00
2023-09-23T13:57:37.202Z,3.83
2023-09-23T14:00:11.441Z,4.07
2023-09-23T14:02:40.358Z,8.05
2023-09-23T14:05:08.459Z,5.07
2023-09-23T14:07:35.923Z,5.28
2023-09-23T14:10:18.648Z,6.00
2023-09-23T14:12:49.986Z,5.78
2023-09-23T14:15:18.135Z,5.47
2023-09-23T14:17:47.428Z,4.32
2023-09-23T14:20:14.877Z,3.10
2023-09-23T14:22:46.454Z,6.47
2023-09-23T14:25:15.405Z,3.53
2023-09-23T14:27:43.935Z,3.95
2023-09-23T14:30:11.962Z,4.82
2023-09-23T14:32:39.626Z,3.70
2023-09-23T14:35:07.004Z,2.15
2023-09-23T14:37:34.923Z,1.90
2023-09-23T14:40:02.048Z,6.45
2023-09-23T14:42:29.242Z,2.92
2023-09-23T14:44:56.038Z,3.38
2023-09-23T14:47:23.376Z,2.47
2023-09-23T14:49:50.366Z,3.75
2023-09-23T14:52:17.547Z,3.80
2023-09-23T14:54:44.289Z,6.32
2023-09-23T14:57:11.503Z,4.22
2023-09-23T14:59:38.661Z,6.70
2023-09-23T15:02:07.316Z,6.30
2023-09-23T15:04:35.401Z,3.30
2023-09-23T15:07:03.192Z,5.78
2023-09-23T15:09:29.985Z,4.95
2023-09-23T15:11:57.020Z,4.28
2023-09-23T15:14:23.823Z,4.20
2023-09-23T15:16:51.612Z,4.88
2023-09-23T15:19:22.272Z,3.00
2023-09-23T15:21:49.404Z,5.55
2023-09-23T15:24:16.163Z,2.45
2023-09-23T15:26:43.520Z,2.83
2023-09-23T15:29:11.169Z,2.85
2023-09-23T15:31:38.740Z,6.70
2023-09-23T15:34:06.499Z,4.72
2023-09-23T15:36:33.946Z,4.45
2023-09-23T15:39:00.833Z,2.30
2023-09-23T15:41:28.020Z,2.92
2023-09-23T15:43:55.506Z,3.22
2023-09-23T15:46:22.538Z,6.22
2023-09-23T15:48:49.699Z,4.30
2023-09-23T15:51:17.146Z,4.20
2023-09-23T15:53:44.449Z,3.33
2023-09-23T15:56:11.628Z,5.63
2023-09-23T15:58:39.269Z,2.78
2023-09-23T16:01:07.439Z,2.72
2023-09-23T16:03:35.227Z,2.40
2023-09-23T16:06:03.074Z,4.07
2023-09-23T16:08:30.282Z,3.65
2023-09-23T16:10:57.371Z,6.03
2023-09-23T16:13:24.182Z,2.55
2023-09-23T16:15:51.478Z,5.60
2023-09-23T16:18:21.651Z,2.10
2023-09-23T16:20:51.678Z,5.45
2023-09-23T16:23:19.474Z,2.50
2023-09-23T16:25:47.230Z,2.40
2023-09-23T16:28:14.270Z,3.17
2023-09-23T16:30:43.079Z,3.15
2023-09-23T16:33:10.056Z,6.95
2023-09-23T16:35:37.124Z,1.38
2023-09-23T16:38:05.086Z,4.63
2023-09-23T16:40:32.384Z,3.15
2023-09-23T16:42:59.220Z,3.30
2023-09-23T16:45:26.286Z,4.22
2023-09-23T16:47:53.138Z,4.75
2023-09-23T16:50:20.317Z,2.72
2023-09-23T16:52:47.151Z,3.20
2023-09-23T16:55:14.313Z,2.92
2023-09-23T16:57:41.312Z,5.90
2023-09-23T17:00:09.367Z,1.95
2023-09-23T17:02:36.461Z,2.60
2023-09-23T17:05:04.158Z,2.22
2023-09-23T17:07:33.207Z,4.38
2023-09-23T17:10:00.497Z,2.40
2023-09-23T17:12:28.595Z,1.92
2023-09-23T17:14:55.704Z,2.08
2023-09-23T17:17:22.726Z,2.85
2023-09-23T17:19:49.869Z,1.58
2023-09-23T17:22:16.613Z,2.72
2023-09-23T17:24:43.685Z,2.55
2023-09-23T17:27:10.675Z,3.35
2023-09-23T17:29:37.777Z,2.58
2023-09-23T17:32:04.860Z,2.20
2023-09-23T17:34:33.666Z,3.35
2023-09-23T17:37:01.195Z,4.05
2023-09-23T17:39:28.237Z,2.35
2023-09-23T17:41:55.069Z,3.13
2023-09-23T17:44:22.301Z,1.50
2023-09-23T17:46:49.872Z,2.67
2023-09-23T17:49:17.038Z,3.35
2023-09-23T17:51:44.145Z,2.15
2023-09-23T17:54:11.291Z,4.68
2023-09-23T17:56:38.017Z,3.50
2023-09-23T17:59:05.326Z,3.28
2023-09-23T18:01:32.678Z,2.72
2023-09-23T18:04:00.092Z,4.57
2023-09-23T18:06:27.819Z,2.20
2023-09-23T18:08:54.944Z,2.95
2023-09-23T18:11:21.879Z,5.55
2023-09-23T18:13:49.277Z,3.05
2023-09-23T18:16:16.541Z,2.22
2023-09-23T18:18:47.251Z,4.35
2023-09-23T18:21:15.327Z,3.30
2023-09-23T18:23:45.137Z,3.55
2023-09-23T18:26:13.863Z,6.15
2023-09-23T18:28:42.166Z,4.88
2023-09-23T18:31:09.209Z,5.88
2023-09-23T18:33:36.783Z,1.85
2023-09-23T18:36:04.125Z,4.32
2023-09-23T18:38:31.729Z,3.22
2023-09-23T18:40:58.847Z,5.28
2023-09-23T18:43:26.608Z,3.75
2023-09-23T18:45:54.344Z,3.47
2023-09-23T18:48:28.307Z,3.20
2023-09-23T18:50:57.511Z,5.20
2023-09-23T18:53:25.174Z,4.70
2023-09-23T18:55:52.582Z,4.13
2023-09-23T18:58:20.528Z,2.72
2023-09-23T19:00:47.866Z,4.20
2023-09-23T19:03:18.506Z,2.70
2023-09-23T19:05:47.502Z,3.72
2023-09-23T19:08:15.388Z,2.60
2023-09-23T19:10:42.728Z,5.22
2023-09-23T19:13:09.987Z,3.70
2023-09-23T19:15:37.238Z,1.88
2023-09-23T19:18:04.775Z,4.25
2023-09-23T19:20:31.920Z,2.92
2023-09-23T19:22:59.782Z,2.40
2023-09-23T19:25:26.860Z,3.58
2023-09-23T19:27:54.269Z,4.20
2023-09-23T19:30:21.215Z,2.30
2023-09-23T19:32:49.134Z,3.45
2023-09-23T19:35:16.884Z,3.78
2023-09-23T19:37:44.298Z,3.42
2023-09-23T19:40:13.016Z,2.75
2023-09-23T19:42:40.859Z,1.90
2023-09-23T19:45:09.694Z,4.47
2023-09-23T19:47:38.185Z,3.60
2023-09-23T19:50:07.219Z,4.82
2023-09-23T19:52:35.238Z,7.10
2023-09-23T19:55:02.513Z,3.75
2023-09-23T19:57:29.906Z,3.67
2023-09-23T19:59:57.711Z,2.80
2023-09-23T20:02:25.360Z,9.70
2023-09-23T20:04:52.432Z,3.92
2023-09-23T20:07:19.691Z,3.53
2023-09-23T20:09:46.670Z,2.40
2023-09-23T20:12:15.369Z,2.42
2023-09-23T20:14:43.993Z,5.53
2023-09-23T20:17:14.622Z,4.63
2023-09-23T20:19:41.627Z,3.40
2023-09-23T20:22:08.901Z,2.53
2023-09-23T20:24:35.927Z,2.90
2023-09-23T20:27:03.319Z,3.87
2023-09-23T20:29:30.325Z,3.30
2023-09-23T20:31:57.802Z,5.82
2023-09-23T20:34:25.176Z,2.95
2023-09-23T20:36:57.032Z,4.30
2023-09-23T20:39:23.962Z,2.35
2023-09-23T20:41:51.976Z,3.78
2023-09-23T20:44:19.124Z,4.18
2023-09-23T20:46:46.672Z,4.35
2023-09-23T20:49:15.235Z,3.58
2023-09-23T20:51:42.615Z,6.97
2023-09-23T20:54:09.554Z,3.23
2023-09-23T20:56:36.572Z,2.92
2023-09-23T20:59:03.657Z,3.70
2023-09-23T21:01:30.881Z,5.05
2023-09-23T21:03:57.912Z,4.35
2023-09-23T21:06:25.092Z,5.53
2023-09-23T21:08:51.965Z,4.03
2023-09-23T21:11:20.111Z,2.95
2023-09-23T21:13:47.706Z,4.78
2023-09-23T21:16:15.995Z,3.53
2023-09-23T21:18:43.082Z,3.23
2023-09-23T21:21:10.167Z,4.85
2023-09-23T21:23:37.188Z,6.13
2023-09-23T21:26:04.263Z,2.93
2023-09-23T21:28:31.024Z,3.45
2023-09-23T21:30:58.136Z,5.03
2023-09-23T21:33:25.416Z,3.83
2023-09-23T21:35:52.596Z,4.07
2023-09-23T21:38:19.494Z,4.13
2023-09-23T21:40:46.691Z,7.25
2023-09-23T21:43:13.451Z,9.32
2023-09-23T21:45:40.799Z,3.55
2023-09-23T21:48:09.137Z,4.50
2023-09-23T21:50:36.695Z,4.63
2023-09-23T21:53:04.169Z,4.80
2023-09-23T21:55:31.240Z,4.27
2023-09-23T21:57:58.143Z,6.43
2023-09-23T22:00:28.574Z,5.43
2023-09-23T22:03:00.510Z,6.15
2023-09-23T22:05:31.029Z,6.82
2023-09-23T22:07:59.863Z,5.25
2023-09-23T22:10:30.577Z,4.45
2023-09-23T22:12:58.179Z,4.40
2023-09-23T22:15:27.289Z,3.30
2023-09-23T22:17:54.737Z,3.37
2023-09-23T22:20:25.621Z,5.70
2023-09-23T22:22:53.023Z,6.25
2023-09-23T22:25:23.507Z,7.63
2023-09-23T22:27:55.207Z,4.72
2023-09-23T22:30:27.035Z,4.73
2023-09-23T22:32:58.851Z,4.60
2023-09-23T22:35:34.176Z,7.57
2023-09-23T22:38:01.738Z,5.45
2023-09-23T22:40:29.149Z,4.95
2023-09-23T22:42:58.380Z,5.57
2023-09-23T22:45:38.692Z,5.88
2023-09-23T22:48:07.081Z,6.60
2023-09-23T22:50:34.821Z,5.57
2023-09-23T22:53:01.886Z,5.95
2023-09-23T22:55:28.901Z,7.30
2023-09-23T22:57:55.722Z,5.23
2023-09-23T23:00:26.743Z,5.97
2023-09-23T23:02:56.306Z,4.43
2023-09-23T23:05:26.203Z,6.07
2023-09-23T23:07:53.361Z,4.00
2023-09-23T23:10:21.143Z,5.95
2023-09-23T23:12:48.466Z,4.88
2023-09-23T23:15:18.797Z,4.57
2023-09-23T23:17:47.232Z,5.78
2023-09-23T23:20:22.705Z,4.70
2023-09-23T23:22:54.205Z,5.40
2023-09-23T23:25:22.551Z,3.83
2023-09-23T23:27:49.971Z,4.30
2023-09-23T23:30:18.882Z,5.33
2023-09-23T23:32:50.344Z,4.93
2023-09-23T23:35:23.414Z,5.33
2023-09-23T23:37:50.876Z,6.00
2023-09-23T23:40:24.115Z,7.47
2023-09-23T23:42:51.255Z,4.90
2023-09-23T23:45:20.699Z,5.17
2023-09-23T23:47:48.655Z,4.17
2023-09-23T23:50:21.401Z,7.23
2023-09-23T23:52:50.220Z,5.97
2023-09-23T23:55:17.708Z,4.73
2023-09-23T23:57:46.031Z,4.60
